Time;durP1;ratioP1;P1;durP2;ratioP2;P2;SDS_P1;SDS_P2;PMS_P1;PMS_P2;Temp;Humidity;BMP_temperature;BMP_pressure;BME280_temperature;BME280_humidity;BME280_pressure;Samples;Min_cycle;Max_cycle;Signal;HPM_P1;HPM_P2
2023/03/11 00:01:53;;;;;;;10.90;5.50;;;;;;;12.09;59.53;96425.45;223828;182;145048;-66
2023/03/11 00:06:57;;;;;;;8.70;5.40;;;;;;;12.05;59.52;96433.89;223735;181;140009;-65
2023/03/11 00:12:02;;;;;;;9.30;5.50;;;;;;;12.03;59.51;96435.08;223614;181;136463;-66
2023/03/11 00:17:06;;;;;;;10.30;5.30;;;;;;;12.00;59.31;96439.02;223743;182;145905;-67
2023/03/11 00:22:11;;;;;;;9.30;5.30;;;;;;;11.94;59.26;96440.44;223813;181;140520;-67
2023/03/11 00:27:14;;;;;;;8.40;5.30;;;;;;;11.90;59.25;96437.21;223815;181;137066;-66
2023/03/11 00:32:18;;;;;;;9.10;5.10;;;;;;;11.87;59.27;96426.52;223765;181;145293;-68
2023/03/11 01:35:23;;;;;;;8.50;5.20;;;;;;;11.55;59.80;96378.30;220918;193;666315;-66
2023/03/11 01:40:32;;;;;;;7.80;5.30;;;;;;;11.52;59.78;96383.00;223138;187;136130;-65
2023/03/11 01:46:01;;;;;;;7.10;4.40;;;;;;;11.49;59.47;96379.10;223243;187;143456;-66
2023/03/11 01:51:07;;;;;;;6.70;3.60;;;;;;;11.50;58.62;96386.83;223251;186;138360;-66
2023/03/11 01:56:13;;;;;;;5.90;3.00;;;;;;;11.49;57.83;96381.54;223427;185;135971;-68
2023/03/11 02:01:19;;;;;;;4.00;2.40;;;;;;;11.44;57.16;96376.61;223623;184;144323;-66
2023/03/11 02:06:24;;;;;;;4.10;2.10;;;;;;;11.40;56.32;96375.59;223714;183;138730;-66
2023/03/11 02:11:30;;;;;;;2.90;1.90;;;;;;;11.38;55.89;96377.57;223658;183;136399;-65
2023/03/11 02:16:35;;;;;;;2.70;1.40;;;;;;;11.35;55.45;96388.38;223765;183;144001;-65
2023/03/11 02:21:40;;;;;;;2.00;1.30;;;;;;;11.31;55.38;96388.11;223653;183;139085;-66
2023/03/11 02:27:15;;;;;;;2.40;1.60;;;;;;;11.25;55.31;96391.97;223704;184;136758;-66
2023/03/11 02:35:18;;;;;;;3.40;0.80;;;;;;;11.14;54.21;96387.17;221431;192;665605;-65
2023/03/11 02:40:23;;;;;;;1.10;0.60;;;;;;;10.99;53.78;96403.04;223286;186;136071;-68
2023/03/11 02:45:30;;;;;;;1.80;0.60;;;;;;;10.86;53.55;96409.45;223941;180;143645;-65
2023/03/11 02:50:36;;;;;;;1.40;0.70;;;;;;;10.75;53.42;96413.63;223867;181;138537;-66
2023/03/11 02:55:43;;;;;;;1.20;0.60;;;;;;;10.63;53.23;96414.63;223832;181;136713;-65
2023/03/11 03:00:48;;;;;;;2.00;0.60;;;;;;;10.51;52.62;96414.73;223767;181;144093;-66
2023/03/11 03:06:02;;;;;;;0.40;0.30;;;;;;;10.40;52.04;96414.02;223945;182;138804;-65
2023/03/11 03:36:06;;;;;;;2.60;0.70;;;;;;;9.91;51.45;96410.85;221603;192;666482;-65
2023/03/11 03:41:04;;;;;;;1.90;0.50;;;;;;;9.84;51.85;96417.30;223402;187;136099;-65
2023/03/11 03:46:30;;;;;;;2.30;0.60;;;;;;;9.76;52.07;96410.29;223384;186;143423;-65
2023/03/11 03:51:47;;;;;;;1.00;0.70;;;;;;;9.72;52.09;96408.20;223362;187;138724;-66
2023/03/11 03:57:00;;;;;;;5.70;0.70;;;;;;;9.67;52.29;96407.66;223432;186;136159;-65
2023/03/11 04:02:12;;;;;;;0.80;0.60;;;;;;;9.60;52.28;96411.52;223375;185;143481;-66
2023/03/11 04:07:20;;;;;;;1.40;0.60;;;;;;;9.56;52.27;96412.45;223400;186;138058;-66
2023/03/11 04:12:45;;;;;;;2.00;0.80;;;;;;;9.51;52.25;96403.08;223448;186;136755;-66
2023/03/11 04:17:52;;;;;;;3.00;0.80;;;;;;;9.40;52.21;96405.91;223296;186;145905;-66
2023/03/11 04:23:03;;;;;;;4.40;0.90;;;;;;;9.40;52.24;96406.81;223398;187;138948;-66
2023/03/11 04:28:30;;;;;;;4.40;0.90;;;;;;;9.38;52.10;96393.75;223260;187;137380;-66
2023/03/11 04:35:23;;;;;;;1.60;0.70;;;;;;;9.38;52.22;96375.02;220323;193;666352;-66
2023/03/11 04:41:06;;;;;;;1.60;0.70;;;;;;;9.23;52.38;96381.41;223387;185;135705;-66
2023/03/11 04:46:24;;;;;;;3.00;1.00;;;;;;;9.18;52.86;96386.71;223337;185;143286;-67
2023/03/11 04:51:33;;;;;;;1.80;0.80;;;;;;;9.11;53.33;96388.48;223518;186;139077;-67
2023/03/11 04:57:33;;;;;;;1.80;0.80;;;;;;;9.10;53.58;96400.98;223210;185;136257;-67
2023/03/11 05:02:39;;;;;;;2.10;0.90;;;;;;;9.11;53.43;96403.67;223589;184;144067;-65
2023/03/11 05:07:47;;;;;;;1.00;0.70;;;;;;;9.14;53.46;96412.23;223754;184;139416;-66
2023/03/11 05:12:59;;;;;;;1.30;0.60;;;;;;;9.16;53.18;96412.02;223771;183;135448;-65
2023/03/11 05:18:23;;;;;;;1.10;0.80;;;;;;;9.03;53.67;96422.17;223581;185;143343;-67
2023/03/11 05:23:43;;;;;;;0.90;0.70;;;;;;;8.87;54.82;96421.58;223652;184;138573;-66
2023/03/11 05:29:17;;;;;;;1.20;0.80;;;;;;;8.61;56.54;96420.25;223561;184;135762;-69
2023/03/11 05:35:22;;;;;;;1.90;0.90;;;;;;;8.47;58.13;96424.33;222056;192;665275;-66
2023/03/11 05:40:32;;;;;;;1.00;0.80;;;;;;;8.40;58.69;96434.80;223857;182;135745;-66
2023/03/11 05:45:54;;;;;;;1.50;0.70;;;;;;;8.30;58.66;96436.27;223918;182;145262;-66
2023/03/11 05:51:09;;;;;;;1.80;0.70;;;;;;;8.15;59.19;96437.48;223926;181;139255;-65
2023/03/11 05:56:16;;;;;;;2.60;0.90;;;;;;;8.06;59.53;96442.00;223994;181;135936;-66
2023/03/11 06:01:20;;;;;;;1.00;0.70;;;;;;;7.90;60.11;96451.45;223902;181;143631;-67
2023/03/11 06:06:25;;;;;;;0.80;0.70;;;;;;;7.73;60.71;96456.75;224007;181;138518;-66
2023/03/11 06:11:42;;;;;;;1.60;0.80;;;;;;;7.65;60.45;96459.73;223939;182;136203;-65
2023/03/11 06:16:53;;;;;;;1.30;0.80;;;;;;;7.41;60.74;96471.69;223941;180;144780;-66
2023/03/11 06:21:57;;;;;;;1.70;0.60;;;;;;;7.23;60.92;96488.84;224016;182;138414;-65
2023/03/11 06:27:10;;;;;;;0.80;0.70;;;;;;;7.09;61.30;96491.12;223891;181;136649;-66
2023/03/11 06:36:04;;;;;;;1.20;0.80;;;;;;;7.15;61.57;96517.91;222145;193;666329;-65
2023/03/11 06:41:24;;;;;;;2.70;1.00;;;;;;;7.02;61.22;96527.54;223236;187;136913;-65
2023/03/11 06:47:27;;;;;;;2.00;1.10;;;;;;;6.90;61.41;96536.55;223670;185;143971;-65
2023/03/11 06:53:05;;;;;;;;;;;;;;;;;;;;;
2023/03/11 06:59:09;;;;;;;2.30;1.10;;;;;;;6.76;61.67;96559.02;223372;186;135705;-66
2023/03/11 07:05:18;;;;;;;;;;;;;;;;;;;;;
2023/03/11 07:18:26;;;;;;;1.80;0.90;;;;;;;6.16;63.91;96602.41;223167;188;136606;-66
2023/03/11 07:23:55;;;;;;;0.90;0.60;;;;;;;6.11;64.20;96613.52;223595;183;143981;-65
2023/03/11 07:29:36;;;;;;;2.10;0.70;;;;;;;6.25;63.34;96617.47;223753;183;138642;-66
2023/03/11 08:39:12;;;;;;;1.20;1.10;;;;;;;5.77;60.34;96693.02;221423;189;679424;-67
2023/03/11 10:05:29;;;;;;;3.50;1.80;;;;;;;5.70;61.18;96801.02;220665;191;666408;-68
2023/03/11 10:10:41;;;;;;;1.80;1.50;;;;;;;5.72;60.59;96807.71;223769;183;136779;-67
2023/03/11 10:15:54;;;;;;;1.90;1.40;;;;;;;5.57;60.52;96815.08;223941;182;143911;-68
2023/03/11 10:27:54;;;;;;;2.50;1.60;;;;;;;5.43;61.51;96836.35;224039;183;135347;-66
2023/03/11 10:51:26;;;;;;;2.30;1.90;;;;;;;4.93;63.92;96876.17;222567;190;687416;-66
2023/03/11 11:03:49;;;;;;;1.90;1.60;;;;;;;4.80;64.78;96906.13;222535;191;143978;-67
2023/03/11 11:09:21;;;;;;;2.90;1.80;;;;;;;4.72;65.38;96912.65;223088;188;138778;-69
2023/03/11 11:14:24;;;;;;;3.10;2.20;;;;;;;4.66;66.06;96916.13;223159;186;136334;-68
2023/03/11 11:19:29;;;;;;;3.00;2.20;;;;;;;4.61;66.17;96924.71;223321;183;145509;-68
2023/03/11 11:24:33;;;;;;;3.10;2.10;;;;;;;4.50;66.68;96931.33;223372;185;139046;-69
2023/03/11 11:29:36;;;;;;;3.00;1.80;;;;;;;4.39;67.19;96942.07;223659;184;137079;-68
2023/03/11 11:35:45;;;;;;;4.00;2.40;;;;;;;4.27;67.32;96951.73;223901;184;143463;-66
2023/03/11 11:41:39;;;;;;;3.80;2.50;;;;;;;4.22;67.60;96965.58;222573;192;138984;-69
2023/03/11 12:25:25;;;;;;;3.40;2.60;;;;;;;3.91;68.43;97058.57;223278;191;135740;-66
2023/03/11 12:38:31;;;;;;;4.10;2.70;;;;;;;3.92;68.71;97096.77;223366;191;144367;-67
2023/03/11 12:44:52;;;;;;;3.60;2.30;;;;;;;3.84;68.10;97132.03;222988;189;139569;-66
2023/03/11 12:52:03;;;;;;;;;;;;;;;;;;;;;
2023/03/11 13:11:38;;;;;;;3.20;2.30;;;;;;;3.65;68.97;97221.84;222416;191;136239;-66
2023/03/11 13:18:12;;;;;;;;;;;;;;;;;;;;;
2023/03/11 13:24:59;;;;;;;;;;;;;;;;;;;;;
2023/03/11 13:31:11;;;;;;;3.00;1.70;;;;;;;3.66;66.75;97282.27;222434;191;137037;-66
2023/03/11 13:37:27;;;;;;;;;;;;;;;;;;;;;
2023/03/11 13:43:09;;;;;;;2.50;2.00;;;;;;;4.68;72.91;97314.99;223508;185;138689;-66
2023/03/11 13:48:46;;;;;;;3.60;2.10;;;;;;;4.85;66.02;97324.39;223573;184;137518;-67
2023/03/11 13:54:21;;;;;;;3.40;2.40;;;;;;;4.57;65.70;97338.02;223421;185;146654;-67
2023/03/11 14:00:15;;;;;;;3.20;2.50;;;;;;;4.25;65.33;97363.09;223437;184;138508;-67
2023/03/11 14:05:25;;;;;;;3.40;2.90;;;;;;;3.98;66.21;97374.77;223521;184;136564;-66
2023/03/11 14:10:31;;;;;;;2.50;2.30;;;;;;;3.70;66.90;97386.73;223537;184;145015;-66
2023/03/11 14:16:09;;;;;;;5.30;2.50;;;;;;;3.59;67.59;97405.96;223447;184;138928;-67
2023/03/11 14:21:18;;;;;;;7.60;3.70;;;;;;;3.50;68.42;97416.08;223551;184;136824;-67
2023/03/11 14:26:34;;;;;;;5.70;3.30;;;;;;;3.51;68.23;97423.56;223587;184;146779;-67
2023/03/11 14:43:27;;;;;;;3.80;2.70;;;;;;;3.45;65.86;97476.73;220521;224;129532;-66
2023/03/11 14:49:03;;;;;;;3.50;2.20;;;;;;;3.36;64.58;97492.83;223065;189;143977;-66
2023/03/11 14:54:29;;;;;;;4.70;2.80;;;;;;;3.25;63.77;97506.27;223291;188;138760;-67
2023/03/11 14:59:36;;;;;;;3.40;2.30;;;;;;;3.23;63.65;97517.08;223308;187;136138;-66
2023/03/11 15:05:08;;;;;;;5.30;2.90;;;;;;;3.20;63.44;97531.47;223722;185;143500;-64
2023/03/11 15:10:37;;;;;;;5.10;3.00;;;;;;;3.19;63.72;97550.64;223395;185;138432;-66
2023/03/11 15:15:46;;;;;;;5.90;3.50;;;;;;;3.24;63.71;97561.53;223396;185;135568;-66
2023/03/11 15:21:22;;;;;;;4.70;2.70;;;;;;;3.24;63.71;97570.99;223470;185;143986;-65
2023/03/11 15:26:37;;;;;;;6.40;3.50;;;;;;;3.12;64.02;97584.30;223463;186;138345;-64
2023/03/11 15:31:53;;;;;;;6.60;2.90;;;;;;;3.19;63.62;97588.27;223518;186;135989;-66
2023/03/11 15:37:26;;;;;;;4.20;2.80;;;;;;;3.16;63.80;97606.69;223431;185;146827;-65
2023/03/11 15:42:33;;;;;;;5.10;3.00;;;;;;;3.13;64.17;97617.23;223542;185;138398;-64
2023/03/11 15:47:55;;;;;;;4.80;2.80;;;;;;;3.17;64.39;97630.30;223535;185;136638;-65
2023/03/11 15:53:13;;;;;;;4.80;2.80;;;;;;;3.22;64.51;97640.69;223442;185;146687;-65
2023/03/11 15:58:27;;;;;;;4.30;3.00;;;;;;;3.26;64.66;97651.51;223399;186;138880;-66
2023/03/11 16:03:38;;;;;;;4.80;3.20;;;;;;;3.27;64.62;97661.10;223570;184;136940;-65
2023/03/11 16:09:04;;;;;;;;;;;;;;;;;;;;;
2023/03/11 16:14:25;;;;;;;6.20;3.50;;;;;;;3.30;65.21;97676.02;223539;185;139868;-65
2023/03/11 16:19:31;;;;;;;7.60;3.80;;;;;;;3.37;65.75;97689.98;223436;185;136195;-65
2023/03/11 16:24:37;;;;;;;8.20;4.10;;;;;;;3.46;66.19;97702.29;223466;184;147096;-65
2023/03/11 16:35:09;;;;;;;6.10;4.10;;;;;;;3.62;66.43;97714.60;221940;193;667699;-70
2023/03/11 16:40:19;;;;;;;7.60;4.80;;;;;;;3.69;66.34;97719.30;223632;183;135905;-67
2023/03/11 16:45:22;;;;;;;7.70;4.40;;;;;;;3.68;65.71;97728.96;223774;183;143451;-69
2023/03/11 16:50:26;;;;;;;8.70;4.90;;;;;;;3.62;65.58;97739.64;223825;181;138424;-67
2023/03/11 16:55:30;;;;;;;8.20;4.60;;;;;;;3.66;65.50;97751.87;223786;181;136901;-66
2023/03/11 17:00:35;;;;;;;11.30;5.90;;;;;;;3.61;65.27;97760.80;223935;181;143434;-65
2023/03/11 17:06:02;;;;;;;8.00;5.00;;;;;;;3.53;65.13;97766.08;223807;181;140083;-65
2023/03/11 17:11:39;;;;;;;8.00;4.80;;;;;;;3.38;65.06;97783.54;223877;183;135613;-64
2023/03/11 17:36:17;;;;;;;8.30;4.70;;;;;;;3.29;63.72;97832.56;221983;193;665865;-66
2023/03/11 17:41:25;;;;;;;9.60;4.70;;;;;;;3.21;63.36;97855.08;222424;194;135530;-64
2023/03/11 17:47:07;;;;;;;5.40;3.50;;;;;;;3.06;63.93;97868.59;222476;193;144347;-66
2023/03/11 17:55:12;;;;;;;6.30;4.10;;;;;;;3.13;64.16;97885.08;220026;189;699498;-64
2023/03/11 18:00:47;;;;;;;7.50;3.80;;;;;;;3.10;63.78;97903.49;222867;187;136125;-65
2023/03/11 18:06:08;;;;;;;6.70;3.70;;;;;;;3.06;63.67;97923.29;223068;188;144780;-65
2023/03/11 18:11:26;;;;;;;9.50;4.50;;;;;;;3.06;63.92;97928.53;223100;188;139423;-66
2023/03/11 18:29:12;;;;;;;5.40;3.40;;;;;;;2.93;62.58;97974.75;223964;182;148155;-65
2023/03/11 18:35:31;;;;;;;6.30;3.30;;;;;;;2.96;61.80;97988.25;223892;182;136172;-65
2023/03/11 18:41:00;;;;;;;5.10;3.20;;;;;;;2.96;61.55;97998.79;223566;185;143437;-65
2023/03/11 18:46:26;;;;;;;5.00;3.10;;;;;;;2.96;61.21;98009.11;223912;183;140133;-66
2023/03/11 18:51:59;;;;;;;4.90;3.10;;;;;;;2.93;60.65;98020.15;223911;185;135932;-65
2023/03/11 19:04:53;;;;;;;6.10;3.70;;;;;;;2.86;60.62;98044.77;223727;184;139372;-65
2023/03/11 19:11:14;;;;;;;8.70;4.70;;;;;;;2.85;60.60;98051.49;223852;184;135647;-65
2023/03/11 19:16:50;;;;;;;5.60;3.50;;;;;;;2.83;60.74;98053.15;223654;185;145174;-65
2023/03/11 19:22:10;;;;;;;7.20;3.80;;;;;;;2.90;60.75;98064.58;223803;185;138233;-65
2023/03/11 19:27:31;;;;;;;8.80;4.50;;;;;;;2.90;60.83;98088.58;223663;182;136720;-65
2023/03/11 19:33:40;;;;;;;5.20;3.30;;;;;;;2.83;63.15;98117.45;223661;184;145216;-63
2023/03/11 19:39:07;;;;;;;9.20;3.70;;;;;;;2.67;64.57;98123.09;223546;183;138300;-66
2023/03/11 19:44:28;;;;;;;7.80;4.20;;;;;;;2.66;64.06;98125.04;223769;183;138041;-64
2023/03/11 19:49:35;;;;;;;6.90;4.10;;;;;;;2.70;63.46;98122.44;223651;184;145173;-63
2023/03/11 19:55:24;;;;;;;9.30;4.20;;;;;;;2.74;63.01;98135.73;223628;184;138622;-65
2023/03/11 20:00:38;;;;;;;6.40;4.00;;;;;;;2.82;61.99;98147.27;223679;183;136826;-65
2023/03/11 20:11:39;;;;;;;9.70;4.60;;;;;;;2.98;60.42;98167.05;223559;184;139905;-65
2023/03/11 20:17:04;;;;;;;9.40;4.60;;;;;;;2.90;60.33;98170.56;223696;186;135840;-64
2023/03/11 20:22:20;;;;;;;7.10;4.00;;;;;;;2.82;59.68;98178.95;223732;180;145578;-65
2023/03/11 20:28:14;;;;;;;7.70;4.20;;;;;;;2.76;59.87;98183.45;223664;184;138750;-64
2023/03/11 20:35:35;;;;;;;8.20;3.90;;;;;;;2.85;59.30;98189.89;221367;194;1675773;-64
2023/03/11 20:40:58;;;;;;;8.50;4.80;;;;;;;2.79;58.79;98194.52;223479;186;136327;-65
2023/03/11 20:53:31;;;;;;;9.90;5.80;;;;;;;2.79;58.91;98202.06;223243;186;138931;-65
2023/03/11 20:58:47;;;;;;;10.00;5.80;;;;;;;2.81;58.85;98205.29;223708;184;136042;-65
2023/03/11 21:04:01;;;;;;;11.30;6.30;;;;;;;2.72;58.90;98212.33;223681;185;143663;-65
2023/03/11 21:09:15;;;;;;;11.90;6.40;;;;;;;2.67;59.37;98214.86;223656;183;140300;-65
2023/03/11 21:14:41;;;;;;;11.50;6.70;;;;;;;2.70;59.31;98212.28;223645;183;138322;-65
2023/03/11 21:20:05;;;;;;;17.00;7.60;;;;;;;2.63;59.43;98214.52;223593;184;144312;-66
2023/03/11 21:25:37;;;;;;;;;;;;;;;;;;;;;
2023/03/11 21:31:15;;;;;;;14.00;7.00;;;;;;;2.61;59.68;98219.48;223711;183;136637;-66
2023/03/11 21:38:18;;;;;;;14.20;6.30;;;;;;;2.56;59.91;98224.06;223503;183;153814;-65
2023/03/11 21:43:53;;;;;;;14.90;7.60;;;;;;;2.49;60.08;98221.02;223203;187;138653;-65
2023/03/11 21:55:31;;;;;;;14.50;6.80;;;;;;;2.56;60.03;98236.11;223275;185;145837;-66
2023/03/11 22:00:57;;;;;;;12.50;6.90;;;;;;;2.59;60.06;98244.23;223536;186;138885;-65
2023/03/11 22:06:23;;;;;;;13.90;7.40;;;;;;;2.53;60.12;98248.86;223466;185;136936;-66
2023/03/11 22:11:51;;;;;;;14.20;7.70;;;;;;;2.58;60.18;98259.69;223410;185;145530;-65
2023/03/11 22:17:54;;;;;;;14.90;7.70;;;;;;;2.55;60.41;98265.43;223378;185;139846;-65
2023/03/11 22:23:01;;;;;;;13.20;7.10;;;;;;;2.57;60.48;98267.27;223763;184;136209;-65
2023/03/11 22:28:29;;;;;;;14.30;7.20;;;;;;;2.60;60.62;98269.77;223602;184;145298;-66
2023/03/11 22:35:26;;;;;;;14.30;7.50;;;;;;;2.65;60.62;98271.14;222044;193;666100;-65
2023/03/11 22:40:56;;;;;;;15.70;7.00;;;;;;;2.66;60.35;98275.83;223070;187;135991;-67
2023/03/11 22:45:59;;;;;;;13.80;7.10;;;;;;;2.69;60.24;98278.69;223811;181;143391;-67
2023/03/11 22:51:05;;;;;;;15.10;7.70;;;;;;;2.73;60.14;98285.89;223729;181;141027;-68
2023/03/11 22:56:11;;;;;;;10.90;6.80;;;;;;;2.76;60.06;98288.19;223893;181;135781;-69
2023/03/11 23:07:47;;;;;;;16.80;7.20;;;;;;;2.73;60.09;98293.39;223895;181;138598;-67
2023/03/11 23:13:16;;;;;;;13.80;7.50;;;;;;;2.73;60.21;98298.64;223934;184;135697;-67
2023/03/11 23:19:01;;;;;;;;;;;;;;;;;;;;;
2023/03/11 23:24:29;;;;;;;11.60;6.90;;;;;;;2.70;59.91;98305.11;223952;182;138381;-67
2023/03/11 23:35:43;;;;;;;8.90;5.30;;;;;;;2.72;59.60;98306.55;220752;194;1675974;-67
2023/03/11 23:41:11;;;;;;;9.40;5.40;;;;;;;2.66;59.56;98312.96;223296;187;136077;-67
2023/03/11 23:46:28;;;;;;;10.30;5.70;;;;;;;2.67;59.43;98317.47;223812;183;144759;-67
2023/03/11 23:51:42;;;;;;;11.10;6.20;;;;;;;2.62;59.64;98320.98;223678;184;138323;-66
2023/03/11 23:56:54;;;;;;;11.60;6.50;;;;;;;2.66;59.53;98319.05;223643;183;136793;-66
